createdAt,value
2023-06-01T00:00:49.620Z,5.13
2023-06-01T00:03:39.558Z,5.32
2023-06-01T00:06:29.669Z,5.45
2023-06-01T00:09:17.867Z,5.00
2023-06-01T00:12:06.858Z,5.28
2023-06-01T00:14:54.326Z,5.68
2023-06-01T00:17:42.337Z,5.68
2023-06-01T00:20:33.228Z,5.53
2023-06-01T00:23:21.202Z,6.05
2023-06-01T00:26:09.789Z,4.97
2023-06-01T00:28:57.527Z,5.13
2023-06-01T00:31:46.106Z,6.20
2023-06-01T00:34:33.919Z,5.20
2023-06-01T00:37:22.766Z,5.85
2023-06-01T00:40:11.140Z,5.32
2023-06-01T00:42:59.051Z,4.93
2023-06-01T00:45:47.260Z,5.45
2023-06-01T00:48:35.139Z,5.45
2023-06-01T00:51:22.629Z,4.90
2023-06-01T00:54:12.805Z,5.43
2023-06-01T00:57:00.581Z,5.43
2023-06-01T00:59:48.512Z,5.07
2023-06-01T01:02:38.415Z,5.10
2023-06-01T01:05:27.532Z,6.20
2023-06-01T01:08:20.107Z,6.20
2023-06-01T01:11:17.742Z,5.95
2023-06-01T01:14:12.462Z,5.53
2023-06-01T01:17:04.758Z,4.70
2023-06-01T01:20:00.840Z,5.53
2023-06-01T01:23:18.113Z,5.22
2023-06-01T01:26:25.925Z,6.13
2023-06-01T01:29:18.081Z,6.40
2023-06-01T01:32:07.778Z,6.05
2023-06-01T01:34:55.940Z,5.28
2023-06-01T01:37:53.265Z,5.50
2023-06-01T01:43:28.325Z,5.93
2023-06-01T01:46:26.847Z,6.03
2023-06-01T01:49:20.315Z,5.45
2023-06-01T01:52:11.633Z,5.45
2023-06-01T01:55:00.659Z,5.95
2023-06-01T01:57:48.951Z,6.18
2023-06-01T02:00:36.596Z,5.28
2023-06-01T02:03:26.067Z,5.07
2023-06-01T02:06:13.757Z,5.20
2023-06-01T02:09:02.810Z,5.30
2023-06-01T02:11:50.527Z,4.70
2023-06-01T02:14:39.189Z,5.40
2023-06-01T02:17:28.577Z,5.15
2023-06-01T02:20:18.886Z,5.35
2023-06-01T02:23:06.677Z,4.82
2023-06-01T02:25:54.377Z,5.45
2023-06-01T02:28:44.105Z,5.05
2023-06-01T02:31:31.815Z,5.25
2023-06-01T02:34:19.994Z,5.20
2023-06-01T02:37:09.273Z,4.85
2023-06-01T02:39:58.100Z,5.78
2023-06-01T02:42:45.767Z,5.38
2023-06-01T02:45:33.377Z,4.93
2023-06-01T02:48:21.128Z,5.20
2023-06-01T02:51:09.098Z,4.88
2023-06-01T02:54:01.041Z,4.95
2023-06-01T02:56:48.583Z,5.60
2023-06-01T02:59:45.673Z,5.88
2023-06-01T03:02:33.369Z,4.80
2023-06-01T03:05:22.334Z,5.47
2023-06-01T03:08:30.259Z,5.00
2023-06-01T03:11:19.455Z,5.30
2023-06-01T03:14:07.109Z,5.47
2023-06-01T03:16:54.813Z,5.43
2023-06-01T03:19:43.811Z,5.38
2023-06-01T03:22:40.709Z,4.80
2023-06-01T03:25:28.274Z,5.50
2023-06-01T03:28:17.647Z,5.78
2023-06-01T03:31:05.807Z,5.57
2023-06-01T03:33:53.788Z,5.53
2023-06-01T03:36:41.683Z,6.38
2023-06-01T03:39:30.544Z,5.95
2023-06-01T03:42:18.698Z,5.60
2023-06-01T03:45:08.613Z,6.50
2023-06-01T03:47:56.322Z,6.28
2023-06-01T03:50:44.159Z,6.50
2023-06-01T03:53:32.664Z,5.50
2023-06-01T03:56:20.711Z,6.47
2023-06-01T03:59:11.478Z,6.30
2023-06-01T04:02:04.251Z,7.05
2023-06-01T04:04:52.472Z,8.73
2023-06-01T04:07:40.118Z,8.45
2023-06-01T04:10:28.060Z,9.40
2023-06-01T04:13:15.543Z,8.18
2023-06-01T04:16:03.097Z,8.25
2023-06-01T04:18:52.535Z,8.07
2023-06-01T04:21:42.538Z,8.15
2023-06-01T04:24:30.452Z,7.70
2023-06-01T04:27:18.309Z,8.57
2023-06-01T04:30:09.158Z,8.73
2023-06-01T04:32:58.894Z,8.30
2023-06-01T04:35:48.474Z,8.07
2023-06-01T04:38:36.644Z,8.52
2023-06-01T04:41:24.553Z,10.13
2023-06-01T04:44:14.333Z,9.45
2023-06-01T04:47:04.848Z,12.52
2023-06-01T04:49:52.796Z,11.23
2023-06-01T04:52:43.241Z,10.85
2023-06-01T04:55:32.901Z,11.63
2023-06-01T04:58:20.651Z,10.30
2023-06-01T05:01:08.754Z,10.95
2023-06-01T05:03:58.074Z,10.70
2023-06-01T05:06:46.876Z,11.43
2023-06-01T05:09:36.368Z,10.27
2023-06-01T05:12:24.352Z,10.30
2023-06-01T05:15:13.009Z,10.27
2023-06-01T05:18:01.395Z,8.27
2023-06-01T05:20:49.258Z,8.02
2023-06-01T05:23:37.152Z,6.32
2023-06-01T05:26:26.625Z,6.82
2023-06-01T05:29:14.080Z,6.38
2023-06-01T05:32:02.918Z,6.40
2023-06-01T05:34:50.809Z,5.25
2023-06-01T05:37:39.047Z,5.70
2023-06-01T05:40:27.160Z,5.47
2023-06-01T05:43:17.406Z,5.57
2023-06-01T05:46:05.888Z,5.38
2023-06-01T05:48:53.686Z,5.07
2023-06-01T05:51:44.178Z,5.38
2023-06-01T05:54:31.927Z,5.85
2023-06-01T05:57:19.664Z,5.43
2023-06-01T06:00:12.208Z,5.88
2023-06-01T06:03:05.050Z,5.97
2023-06-01T06:05:52.975Z,5.05
2023-06-01T06:08:40.795Z,4.30
2023-06-01T06:11:28.699Z,4.78
2023-06-01T06:14:16.387Z,4.50
2023-06-01T06:17:06.017Z,5.18
2023-06-01T06:19:53.602Z,3.92
2023-06-01T06:22:41.216Z,3.63
2023-06-01T06:25:28.781Z,3.70
2023-06-01T06:28:16.551Z,4.25
2023-06-01T06:31:04.568Z,4.13
2023-06-01T06:33:54.114Z,3.85
2023-06-01T06:36:41.820Z,4.93
2023-06-01T06:39:29.319Z,4.25
2023-06-01T06:42:17.219Z,3.55
2023-06-01T06:45:06.306Z,3.25
2023-06-01T06:47:54.171Z,3.63
2023-06-01T06:50:45.353Z,3.58
2023-06-01T06:53:34.333Z,3.95
2023-06-01T06:56:22.207Z,3.55
2023-06-01T06:59:10.476Z,3.58
2023-06-01T07:01:58.324Z,3.47
2023-06-01T07:04:46.180Z,4.20
2023-06-01T07:07:35.267Z,3.53
2023-06-01T07:10:22.855Z,3.17
2023-06-01T07:13:10.247Z,3.10
2023-06-01T07:15:57.625Z,3.25
2023-06-01T07:18:45.096Z,2.80
2023-06-01T07:21:32.644Z,3.05
2023-06-01T07:24:21.789Z,2.80
2023-06-01T07:27:09.283Z,2.83
2023-06-01T07:29:57.319Z,2.67
2023-06-01T07:32:45.611Z,2.88
2023-06-01T07:35:34.705Z,3.15
2023-06-01T07:38:23.915Z,2.92
2023-06-01T07:41:13.022Z,2.70
2023-06-01T07:44:00.621Z,2.63
2023-06-01T07:46:49.046Z,3.38
2023-06-01T07:49:37.542Z,3.17
2023-06-01T07:52:26.005Z,2.80
2023-06-01T07:55:13.681Z,4.10
2023-06-01T07:58:02.704Z,3.17
2023-06-01T08:00:50.640Z,2.60
2023-06-01T08:03:38.945Z,3.60
2023-06-01T08:06:27.864Z,2.80
2023-06-01T08:09:15.913Z,2.72
2023-06-01T08:12:03.502Z,2.92
2023-06-01T08:14:52.538Z,2.90
2023-06-01T08:17:41.687Z,2.40
2023-06-01T08:20:30.296Z,2.60
2023-06-01T08:23:18.649Z,2.47
2023-06-01T08:26:06.647Z,2.38
2023-06-01T08:28:54.177Z,2.53
2023-06-01T08:31:43.218Z,2.83
2023-06-01T08:34:31.096Z,1.85
2023-06-01T08:37:18.902Z,2.63
2023-06-01T08:40:09.672Z,2.85
2023-06-01T08:43:01.173Z,2.20
2023-06-01T08:45:49.273Z,2.20
2023-06-01T08:48:39.902Z,2.30
2023-06-01T08:51:28.034Z,2.00
2023-06-01T08:54:15.902Z,1.65
2023-06-01T08:57:06.187Z,1.58
2023-06-01T08:59:53.835Z,2.22
2023-06-01T09:02:41.671Z,1.77
2023-06-01T09:05:30.816Z,1.70
2023-06-01T09:08:18.886Z,1.70
2023-06-01T09:11:06.480Z,1.92
2023-06-01T09:13:54.247Z,1.58
2023-06-01T09:16:41.977Z,1.80
2023-06-01T09:19:43.493Z,1.80
2023-06-01T09:22:42.756Z,1.63
2023-06-01T09:25:32.310Z,1.50
2023-06-01T09:28:20.203Z,1.60
2023-06-01T09:31:07.783Z,1.20
2023-06-01T09:34:02.417Z,1.63
2023-06-01T09:36:51.535Z,1.50
2023-06-01T09:39:40.476Z,2.28
2023-06-01T09:42:34.557Z,1.45
2023-06-01T09:45:23.685Z,2.78
2023-06-01T09:48:30.734Z,1.50
2023-06-01T09:51:30.888Z,1.50
2023-06-01T09:54:29.568Z,2.40
2023-06-01T09:57:25.365Z,1.58
2023-06-01T10:00:25.579Z,1.70
2023-06-01T10:03:13.535Z,1.65
2023-06-01T10:06:01.888Z,1.40
2023-06-01T10:08:52.415Z,1.23
2023-06-01T10:11:39.917Z,1.25
2023-06-01T10:14:29.092Z,1.70
2023-06-01T10:17:17.595Z,1.42
2023-06-01T10:20:06.169Z,1.40
2023-06-01T10:22:54.462Z,1.40
2023-06-01T10:25:46.343Z,1.60
2023-06-01T10:28:37.749Z,1.52
2023-06-01T10:31:41.289Z,1.45
2023-06-01T10:34:43.091Z,1.30
2023-06-01T10:37:30.564Z,1.40
2023-06-01T10:40:23.103Z,1.35
2023-06-01T10:43:31.271Z,2.03
2023-06-01T10:46:45.565Z,1.75
2023-06-01T10:50:07.084Z,1.50
2023-06-01T10:52:57.018Z,1.52
2023-06-01T10:55:44.546Z,1.45
2023-06-01T10:58:31.953Z,1.60
2023-06-01T11:01:23.048Z,1.40
2023-06-01T11:04:12.389Z,1.40
2023-06-01T11:07:38.454Z,1.40
2023-06-01T11:11:01.943Z,1.80
2023-06-01T11:14:13.660Z,1.98
2023-06-01T11:17:30.996Z,1.50
2023-06-01T11:20:21.622Z,1.60
2023-06-01T11:23:13.008Z,1.50
2023-06-01T11:26:03.650Z,1.25
2023-06-01T11:28:51.597Z,1.45
2023-06-01T11:31:41.690Z,1.83
2023-06-01T11:34:35.384Z,2.05
2023-06-01T11:37:26.638Z,1.73
2023-06-01T11:40:15.643Z,1.92
2023-06-01T11:43:03.700Z,1.67
2023-06-01T11:46:13.911Z,1.77
2023-06-01T11:49:08.236Z,2.25
2023-06-01T11:51:57.822Z,1.92
2023-06-01T11:54:47.606Z,2.17
2023-06-01T11:57:35.360Z,1.73
2023-06-01T12:00:24.401Z,1.58
2023-06-01T12:03:11.904Z,1.83
2023-06-01T12:06:02.026Z,2.00
2023-06-01T12:08:52.105Z,1.88
2023-06-01T12:11:44.124Z,1.80
2023-06-01T12:14:31.790Z,2.10
2023-06-01T12:17:20.281Z,2.10
2023-06-01T12:20:09.759Z,1.88
2023-06-01T12:22:57.306Z,2.10
2023-06-01T12:25:52.412Z,2.40
2023-06-01T12:28:58.094Z,1.90
2023-06-01T12:31:57.127Z,2.15
2023-06-01T12:34:48.778Z,2.30
2023-06-01T12:37:36.922Z,2.67
2023-06-01T12:40:25.031Z,1.95
2023-06-01T12:43:20.212Z,1.98
2023-06-01T12:46:09.457Z,2.22
2023-06-01T12:49:13.808Z,1.90
2023-06-01T12:52:02.434Z,1.90
2023-06-01T12:54:51.594Z,2.15
2023-06-01T12:57:39.677Z,2.08
2023-06-01T13:00:30.967Z,1.90
2023-06-01T13:03:24.469Z,2.05
2023-06-01T13:06:12.023Z,2.28
2023-06-01T13:08:59.712Z,1.88
2023-06-01T13:11:47.382Z,1.95
2023-06-01T13:14:34.793Z,2.15
2023-06-01T13:17:22.316Z,2.22
2023-06-01T13:20:12.920Z,1.92
2023-06-01T13:23:00.640Z,1.90
2023-06-01T13:25:48.327Z,2.60
2023-06-01T13:28:36.184Z,2.03
2023-06-01T13:31:24.480Z,2.45
2023-06-01T13:34:12.764Z,2.38
2023-06-01T13:37:01.473Z,1.88
2023-06-01T13:39:49.000Z,2.08
2023-06-01T13:42:36.630Z,2.17
2023-06-01T13:45:24.417Z,1.70
2023-06-01T13:48:15.418Z,2.10
2023-06-01T13:51:04.387Z,1.92
2023-06-01T13:53:53.375Z,2.22
2023-06-01T13:56:41.228Z,2.60
2023-06-01T13:59:29.122Z,2.33
2023-06-01T14:02:16.753Z,2.17
2023-06-01T14:05:08.068Z,1.90
2023-06-01T14:07:56.980Z,2.28
2023-06-01T14:10:46.325Z,2.00
2023-06-01T14:13:34.104Z,2.28
2023-06-01T14:16:21.715Z,2.13
2023-06-01T14:19:09.568Z,2.20
2023-06-01T14:21:57.378Z,2.20
2023-06-01T14:24:45.199Z,2.15
2023-06-01T14:27:33.922Z,1.77
2023-06-01T14:30:21.540Z,2.03
2023-06-01T14:33:09.185Z,2.42
2023-06-01T14:35:56.587Z,2.25
2023-06-01T14:38:44.366Z,2.30
2023-06-01T14:41:31.886Z,2.40
2023-06-01T14:44:20.782Z,2.17
2023-06-01T14:47:09.315Z,2.10
2023-06-01T14:49:57.428Z,2.63
2023-06-01T14:52:45.118Z,3.55
2023-06-01T14:55:32.693Z,1.92
2023-06-01T14:58:20.212Z,2.65
2023-06-01T15:01:09.182Z,2.55
2023-06-01T15:03:56.635Z,2.13
2023-06-01T15:06:44.077Z,2.55
2023-06-01T15:09:31.529Z,2.10
2023-06-01T15:12:18.939Z,2.42
2023-06-01T15:15:07.341Z,1.70
2023-06-01T15:17:57.066Z,2.15
2023-06-01T15:20:45.300Z,2.20
2023-06-01T15:23:33.128Z,2.20
2023-06-01T15:26:20.490Z,2.03
2023-06-01T15:29:07.823Z,2.33
2023-06-01T15:31:55.332Z,2.22
2023-06-01T15:34:44.388Z,2.25
2023-06-01T15:37:32.407Z,2.55
2023-06-01T15:40:20.172Z,2.65
2023-06-01T15:43:07.997Z,2.53
2023-06-01T15:45:55.750Z,2.13
2023-06-01T15:48:45.399Z,2.03
2023-06-01T15:51:34.428Z,2.20
2023-06-01T15:54:22.327Z,2.90
2023-06-01T15:57:09.785Z,2.63
2023-06-01T15:59:57.501Z,2.20
2023-06-01T16:02:45.003Z,2.40
2023-06-01T16:05:33.237Z,2.60
2023-06-01T16:08:22.456Z,2.83
2023-06-01T16:11:09.762Z,3.00
2023-06-01T16:13:57.453Z,3.22
2023-06-01T16:16:45.600Z,2.95
2023-06-01T16:19:33.344Z,3.55
2023-06-01T16:22:21.187Z,3.53
2023-06-01T16:25:11.369Z,3.63
2023-06-01T16:27:58.699Z,3.67
2023-06-01T16:30:46.293Z,3.42
2023-06-01T16:33:34.080Z,3.38
2023-06-01T16:36:21.438Z,3.35
2023-06-01T16:39:08.917Z,3.08
2023-06-01T16:41:57.727Z,2.92
2023-06-01T16:44:45.354Z,3.47
2023-06-01T16:47:32.744Z,3.40
2023-06-01T16:50:20.636Z,4.25
2023-06-01T16:53:08.273Z,3.92
2023-06-01T16:55:55.673Z,3.88
2023-06-01T16:58:44.440Z,3.63
2023-06-01T17:01:34.496Z,3.78
2023-06-01T17:04:22.043Z,3.60
2023-06-01T17:07:09.420Z,3.22
2023-06-01T17:09:56.784Z,3.53
2023-06-01T17:12:44.194Z,3.38
2023-06-01T17:15:33.695Z,3.65
2023-06-01T17:18:22.223Z,3.55
2023-06-01T17:21:09.708Z,3.65
2023-06-01T17:23:57.025Z,3.60
2023-06-01T17:26:44.510Z,3.60
2023-06-01T17:29:31.905Z,3.55
2023-06-01T17:32:20.637Z,3.95
2023-06-01T17:35:09.485Z,3.35
2023-06-01T17:37:57.081Z,3.45
2023-06-01T17:40:44.589Z,3.17
2023-06-01T17:43:32.395Z,3.50
2023-06-01T17:46:20.062Z,3.55
2023-06-01T17:49:09.025Z,2.80
2023-06-01T17:51:56.959Z,3.70
2023-06-01T17:54:46.127Z,4.03
2023-06-01T17:57:33.856Z,3.33
2023-06-01T18:00:22.189Z,3.70
2023-06-01T18:03:09.804Z,3.63
2023-06-01T18:05:58.771Z,3.85
2023-06-01T18:08:46.527Z,3.47
2023-06-01T18:11:33.945Z,3.35
2023-06-01T18:14:21.328Z,3.25
2023-06-01T18:17:09.205Z,3.70
2023-06-01T18:19:56.934Z,3.75
2023-06-01T18:22:46.153Z,3.05
2023-06-01T18:25:33.704Z,4.10
2023-06-01T18:28:21.171Z,3.63
2023-06-01T18:31:08.836Z,4.10
2023-06-01T18:33:56.479Z,4.00
2023-06-01T18:36:43.947Z,3.80
2023-06-01T18:39:33.128Z,3.85
2023-06-01T18:42:20.403Z,3.60
2023-06-01T18:45:09.266Z,4.05
2023-06-01T18:47:56.963Z,3.67
2023-06-01T18:50:44.429Z,3.50
2023-06-01T18:53:32.102Z,3.30
2023-06-01T18:56:21.979Z,3.95
2023-06-01T18:59:09.952Z,3.58
2023-06-01T19:01:57.565Z,3.60
2023-06-01T19:04:45.114Z,4.18
2023-06-01T19:07:38.187Z,4.68
2023-06-01T19:10:59.445Z,4.97
2023-06-01T19:13:49.383Z,4.82
2023-06-01T19:16:37.207Z,4.00
2023-06-01T19:19:26.950Z,4.20
2023-06-01T19:22:15.089Z,4.50
2023-06-01T19:25:03.279Z,4.10
2023-06-01T19:27:50.837Z,4.07
2023-06-01T19:30:39.819Z,4.05
2023-06-01T19:33:27.998Z,3.95
2023-06-01T19:37:01.787Z,4.43
2023-06-01T19:39:49.417Z,4.10
2023-06-01T19:42:40.268Z,3.92
2023-06-01T19:45:27.917Z,4.68
2023-06-01T19:48:25.507Z,4.90
2023-06-01T19:51:13.257Z,5.13
2023-06-01T19:54:01.416Z,5.70
2023-06-01T19:56:48.777Z,4.57
2023-06-01T19:59:39.215Z,4.60
2023-06-01T20:02:50.116Z,4.15
2023-06-01T20:05:40.078Z,4.70
2023-06-01T20:08:27.724Z,4.57
2023-06-01T20:11:18.157Z,4.97
2023-06-01T20:14:06.367Z,4.18
2023-06-01T20:16:54.320Z,3.67
2023-06-01T20:19:42.023Z,4.28
2023-06-01T20:22:31.530Z,4.47
2023-06-01T20:25:23.251Z,5.00
2023-06-01T20:28:12.791Z,4.47
2023-06-01T20:31:07.050Z,4.50
2023-06-01T20:33:56.097Z,4.45
2023-06-01T20:36:43.930Z,4.95
2023-06-01T20:39:33.030Z,5.72
2023-06-01T20:42:20.914Z,5.35
2023-06-01T20:45:53.639Z,5.40
2023-06-01T20:48:47.485Z,6.13
2023-06-01T20:51:36.663Z,6.10
2023-06-01T20:54:25.462Z,6.32
2023-06-01T20:57:17.984Z,6.70
2023-06-01T21:00:06.318Z,7.10
2023-06-01T21:02:54.824Z,7.95
2023-06-01T21:05:42.652Z,7.60
2023-06-01T21:08:30.257Z,7.47
2023-06-01T21:11:17.660Z,7.85
2023-06-01T21:14:06.577Z,7.57
2023-06-01T21:16:54.420Z,8.32
2023-06-01T21:19:41.809Z,7.72
2023-06-01T21:22:29.335Z,8.18
2023-06-01T21:25:16.758Z,8.82
2023-06-01T21:28:04.441Z,7.63
2023-06-01T21:30:53.301Z,9.75
2023-06-01T21:33:40.907Z,8.68
2023-06-01T21:36:28.529Z,8.43
2023-06-01T21:39:16.073Z,7.93
2023-06-01T21:42:03.572Z,7.40
2023-06-01T21:44:51.712Z,9.07
2023-06-01T21:47:41.391Z,9.35
2023-06-01T21:50:29.789Z,8.80
2023-06-01T21:53:18.642Z,9.18
2023-06-01T21:56:06.327Z,10.38
2023-06-01T21:58:54.072Z,9.05
2023-06-01T22:01:41.913Z,9.05
2023-06-01T22:04:30.604Z,9.15
2023-06-01T22:07:18.294Z,8.75
2023-06-01T22:10:06.822Z,9.50
2023-06-01T22:12:54.766Z,8.80
2023-06-01T22:15:42.470Z,8.25
2023-06-01T22:18:30.074Z,9.25
2023-06-01T22:21:21.704Z,8.52
2023-06-01T22:24:09.556Z,9.07
2023-06-01T22:26:57.336Z,8.02
2023-06-01T22:29:44.706Z,7.68
2023-06-01T22:32:32.175Z,8.43
2023-06-01T22:35:19.897Z,8.07
2023-06-01T22:38:09.036Z,8.05
2023-06-01T22:40:56.642Z,7.93
2023-06-01T22:43:43.957Z,7.47
2023-06-01T22:46:31.933Z,8.13
2023-06-01T22:49:19.923Z,7.75
2023-06-01T22:52:08.307Z,7.28
2023-06-01T22:54:57.720Z,7.97
2023-06-01T22:57:45.544Z,9.50
2023-06-01T23:00:33.297Z,8.80
2023-06-01T23:03:21.026Z,8.65
2023-06-01T23:06:09.033Z,8.35
2023-06-01T23:08:58.375Z,9.18
2023-06-01T23:11:52.464Z,8.60
2023-06-01T23:14:42.667Z,8.93
2023-06-01T23:17:34.023Z,8.90
2023-06-01T23:20:21.755Z,8.30
2023-06-01T23:23:09.232Z,8.35
2023-06-01T23:25:56.686Z,7.82
2023-06-01T23:28:56.966Z,8.10
2023-06-01T23:31:45.290Z,7.78
2023-06-01T23:34:35.053Z,8.05
2023-06-01T23:37:28.541Z,7.95
2023-06-01T23:40:17.267Z,8.60
2023-06-01T23:43:04.843Z,7.90
2023-06-01T23:45:55.118Z,7.65
2023-06-01T23:48:43.094Z,8.02
2023-06-01T23:51:30.596Z,7.68
2023-06-01T23:54:18.365Z,7.80
2023-06-01T23:57:07.106Z,9.45
2023-06-01T23:59:54.730Z,8.70
